sensor_id;sensor_type;location;lat;lon;timestamp;P1;durP1;ratioP1;P2;durP2;ratioP2
38715;SDS011;24833;49.324;8.694;2023-05-16T00:00:48;10.10;;;8.13;;
38715;SDS011;24833;49.324;8.694;2023-05-16T00:03:18;9.27;;;7.82;;
38715;SDS011;24833;49.324;8.694;2023-05-16T00:05:46;10.93;;;8.50;;
38715;SDS011;24833;49.324;8.694;2023-05-16T00:08:13;10.52;;;8.23;;
38715;SDS011;24833;49.324;8.694;2023-05-16T00:10:40;10.82;;;9.13;;
38715;SDS011;24833;49.324;8.694;2023-05-16T00:13:07;9.50;;;8.50;;
38715;SDS011;24833;49.324;8.694;2023-05-16T00:15:35;12.05;;;9.35;;
38715;SDS011;24833;49.324;8.694;2023-05-16T00:18:03;14.80;;;9.75;;
38715;SDS011;24833;49.324;8.694;2023-05-16T00:20:31;11.68;;;9.77;;
38715;SDS011;24833;49.324;8.694;2023-05-16T00:22:58;10.10;;;8.77;;
38715;SDS011;24833;49.324;8.694;2023-05-16T00:25:26;12.30;;;9.07;;
38715;SDS011;24833;49.324;8.694;2023-05-16T00:27:54;10.98;;;8.95;;
38715;SDS011;24833;49.324;8.694;2023-05-16T00:30:21;9.65;;;8.68;;
38715;SDS011;24833;49.324;8.694;2023-05-16T00:32:50;10.60;;;8.95;;
38715;SDS011;24833;49.324;8.694;2023-05-16T00:35:17;14.88;;;9.68;;
38715;SDS011;24833;49.324;8.694;2023-05-16T00:37:44;10.52;;;9.40;;
38715;SDS011;24833;49.324;8.694;2023-05-16T00:40:11;11.88;;;9.45;;
38715;SDS011;24833;49.324;8.694;2023-05-16T00:42:38;11.38;;;9.95;;
38715;SDS011;24833;49.324;8.694;2023-05-16T00:45:05;14.25;;;10.18;;
38715;SDS011;24833;49.324;8.694;2023-05-16T00:47:34;13.13;;;9.98;;
38715;SDS011;24833;49.324;8.694;2023-05-16T00:50:01;12.25;;;10.60;;
38715;SDS011;24833;49.324;8.694;2023-05-16T00:52:30;14.25;;;11.80;;
38715;SDS011;24833;49.324;8.694;2023-05-16T00:54:58;18.80;;;12.82;;
38715;SDS011;24833;49.324;8.694;2023-05-16T00:57:26;15.90;;;12.40;;
38715;SDS011;24833;49.324;8.694;2023-05-16T00:59:53;16.90;;;13.23;;
38715;SDS011;24833;49.324;8.694;2023-05-16T01:02:20;14.15;;;11.82;;
38715;SDS011;24833;49.324;8.694;2023-05-16T01:04:47;18.45;;;13.45;;
38715;SDS011;24833;49.324;8.694;2023-05-16T01:07:16;19.33;;;14.65;;
38715;SDS011;24833;49.324;8.694;2023-05-16T01:09:44;17.45;;;13.73;;
38715;SDS011;24833;49.324;8.694;2023-05-16T01:26:14;21.10;;;15.07;;
38715;SDS011;24833;49.324;8.694;2023-05-16T01:28:50;22.88;;;16.52;;
38715;SDS011;24833;49.324;8.694;2023-05-16T01:31:18;22.55;;;16.27;;
38715;SDS011;24833;49.324;8.694;2023-05-16T01:33:50;20.13;;;15.65;;
38715;SDS011;24833;49.324;8.694;2023-05-16T01:36:24;22.15;;;15.80;;
38715;SDS011;24833;49.324;8.694;2023-05-16T01:39:21;19.98;;;14.65;;
38715;SDS011;24833;49.324;8.694;2023-05-16T01:42:12;20.02;;;15.68;;
38715;SDS011;24833;49.324;8.694;2023-05-16T01:47:15;20.77;;;15.90;;
38715;SDS011;24833;49.324;8.694;2023-05-16T01:49:50;17.65;;;15.48;;
38715;SDS011;24833;49.324;8.694;2023-05-16T01:52:52;20.02;;;14.88;;
38715;SDS011;24833;49.324;8.694;2023-05-16T01:55:41;19.95;;;15.85;;
38715;SDS011;24833;49.324;8.694;2023-05-16T01:58:14;19.33;;;15.80;;
38715;SDS011;24833;49.324;8.694;2023-05-16T02:00:45;23.88;;;17.40;;
38715;SDS011;24833;49.324;8.694;2023-05-16T02:03:12;19.20;;;16.13;;
38715;SDS011;24833;49.324;8.694;2023-05-16T02:05:39;22.90;;;17.13;;
38715;SDS011;24833;49.324;8.694;2023-05-16T02:08:08;21.38;;;16.38;;
38715;SDS011;24833;49.324;8.694;2023-05-16T02:10:36;20.83;;;16.30;;
38715;SDS011;24833;49.324;8.694;2023-05-16T02:13:05;21.90;;;16.55;;
38715;SDS011;24833;49.324;8.694;2023-05-16T02:15:32;21.13;;;15.70;;
38715;SDS011;24833;49.324;8.694;2023-05-16T02:17:59;18.52;;;15.30;;
38715;SDS011;24833;49.324;8.694;2023-05-16T02:20:26;22.48;;;18.13;;
38715;SDS011;24833;49.324;8.694;2023-05-16T02:22:53;20.25;;;16.00;;
38715;SDS011;24833;49.324;8.694;2023-05-16T02:25:20;19.85;;;15.80;;
38715;SDS011;24833;49.324;8.694;2023-05-16T02:27:47;20.95;;;16.02;;
38715;SDS011;24833;49.324;8.694;2023-05-16T02:30:14;25.23;;;18.25;;
38715;SDS011;24833;49.324;8.694;2023-05-16T02:32:43;19.27;;;15.60;;
38715;SDS011;24833;49.324;8.694;2023-05-16T02:35:10;18.58;;;15.95;;
38715;SDS011;24833;49.324;8.694;2023-05-16T02:37:38;20.58;;;16.02;;
38715;SDS011;24833;49.324;8.694;2023-05-16T02:40:06;22.90;;;17.10;;
38715;SDS011;24833;49.324;8.694;2023-05-16T02:42:35;24.10;;;17.10;;
38715;SDS011;24833;49.324;8.694;2023-05-16T02:45:02;20.90;;;16.27;;
38715;SDS011;24833;49.324;8.694;2023-05-16T02:47:30;20.45;;;16.85;;
38715;SDS011;24833;49.324;8.694;2023-05-16T02:49:58;22.42;;;17.98;;
38715;SDS011;24833;49.324;8.694;2023-05-16T02:52:25;23.00;;;17.55;;
38715;SDS011;24833;49.324;8.694;2023-05-16T02:54:52;21.95;;;17.15;;
38715;SDS011;24833;49.324;8.694;2023-05-16T02:57:22;21.17;;;17.10;;
38715;SDS011;24833;49.324;8.694;2023-05-16T02:59:49;22.75;;;17.63;;
38715;SDS011;24833;49.324;8.694;2023-05-16T03:02:16;20.88;;;17.02;;
38715;SDS011;24833;49.324;8.694;2023-05-16T03:04:43;22.38;;;17.52;;
38715;SDS011;24833;49.324;8.694;2023-05-16T03:07:10;22.75;;;17.15;;
38715;SDS011;24833;49.324;8.694;2023-05-16T03:09:37;22.75;;;17.70;;
38715;SDS011;24833;49.324;8.694;2023-05-16T03:12:04;24.30;;;17.58;;
38715;SDS011;24833;49.324;8.694;2023-05-16T03:14:33;25.63;;;19.15;;
38715;SDS011;24833;49.324;8.694;2023-05-16T03:17:01;22.35;;;17.00;;
38715;SDS011;24833;49.324;8.694;2023-05-16T03:19:28;20.77;;;17.65;;
38715;SDS011;24833;49.324;8.694;2023-05-16T03:21:56;19.85;;;16.38;;
38715;SDS011;24833;49.324;8.694;2023-05-16T03:24:23;21.73;;;16.67;;
38715;SDS011;24833;49.324;8.694;2023-05-16T03:26:50;22.67;;;16.73;;
38715;SDS011;24833;49.324;8.694;2023-05-16T03:29:19;18.60;;;14.73;;
38715;SDS011;24833;49.324;8.694;2023-05-16T03:31:46;21.38;;;15.63;;
38715;SDS011;24833;49.324;8.694;2023-05-16T03:34:13;20.90;;;15.38;;
38715;SDS011;24833;49.324;8.694;2023-05-16T03:36:40;18.73;;;13.80;;
38715;SDS011;24833;49.324;8.694;2023-05-16T03:39:08;20.58;;;14.70;;
38715;SDS011;24833;49.324;8.694;2023-05-16T03:41:35;17.90;;;14.38;;
38715;SDS011;24833;49.324;8.694;2023-05-16T03:44:02;20.25;;;13.85;;
38715;SDS011;24833;49.324;8.694;2023-05-16T03:46:29;17.83;;;13.27;;
38715;SDS011;24833;49.324;8.694;2023-05-16T03:48:56;14.82;;;13.15;;
38715;SDS011;24833;49.324;8.694;2023-05-16T03:51:24;15.25;;;12.93;;
38715;SDS011;24833;49.324;8.694;2023-05-16T03:53:51;14.30;;;12.30;;
38715;SDS011;24833;49.324;8.694;2023-05-16T03:56:18;16.92;;;13.05;;
38715;SDS011;24833;49.324;8.694;2023-05-16T03:58:45;16.83;;;12.50;;
38715;SDS011;24833;49.324;8.694;2023-05-16T04:01:12;14.18;;;11.75;;
38715;SDS011;24833;49.324;8.694;2023-05-16T04:03:39;15.50;;;11.52;;
38715;SDS011;24833;49.324;8.694;2023-05-16T04:06:06;15.40;;;12.30;;
38715;SDS011;24833;49.324;8.694;2023-05-16T04:08:34;14.23;;;10.75;;
38715;SDS011;24833;49.324;8.694;2023-05-16T04:11:01;16.27;;;11.25;;
38715;SDS011;24833;49.324;8.694;2023-05-16T04:13:28;16.75;;;11.90;;
38715;SDS011;24833;49.324;8.694;2023-05-16T04:15:55;15.13;;;11.00;;
38715;SDS011;24833;49.324;8.694;2023-05-16T04:18:22;14.52;;;10.45;;
38715;SDS011;24833;49.324;8.694;2023-05-16T04:20:52;15.38;;;11.43;;
38715;SDS011;24833;49.324;8.694;2023-05-16T04:23:19;12.75;;;10.77;;
38715;SDS011;24833;49.324;8.694;2023-05-16T04:25:46;11.95;;;9.95;;
38715;SDS011;24833;49.324;8.694;2023-05-16T04:28:13;15.68;;;10.13;;
38715;SDS011;24833;49.324;8.694;2023-05-16T04:30:40;13.13;;;10.45;;
38715;SDS011;24833;49.324;8.694;2023-05-16T04:33:07;12.73;;;10.07;;
38715;SDS011;24833;49.324;8.694;2023-05-16T04:35:34;12.93;;;10.45;;
38715;SDS011;24833;49.324;8.694;2023-05-16T04:38:02;11.63;;;9.68;;
38715;SDS011;24833;49.324;8.694;2023-05-16T04:40:30;11.20;;;8.85;;
38715;SDS011;24833;49.324;8.694;2023-05-16T04:42:57;14.35;;;10.05;;
38715;SDS011;24833;49.324;8.694;2023-05-16T04:45:24;11.95;;;9.73;;
38715;SDS011;24833;49.324;8.694;2023-05-16T04:47:52;12.57;;;9.50;;
38715;SDS011;24833;49.324;8.694;2023-05-16T04:50:19;13.50;;;9.85;;
38715;SDS011;24833;49.324;8.694;2023-05-16T04:52:46;14.52;;;9.85;;
38715;SDS011;24833;49.324;8.694;2023-05-16T04:55:12;11.85;;;10.07;;
38715;SDS011;24833;49.324;8.694;2023-05-16T04:57:39;11.93;;;9.38;;
38715;SDS011;24833;49.324;8.694;2023-05-16T05:00:06;12.15;;;9.65;;
38715;SDS011;24833;49.324;8.694;2023-05-16T05:02:37;11.65;;;9.35;;
38715;SDS011;24833;49.324;8.694;2023-05-16T05:05:04;14.40;;;10.70;;
38715;SDS011;24833;49.324;8.694;2023-05-16T05:07:32;14.57;;;10.15;;
38715;SDS011;24833;49.324;8.694;2023-05-16T05:09:59;14.68;;;10.85;;
38715;SDS011;24833;49.324;8.694;2023-05-16T05:12:27;12.23;;;10.07;;
38715;SDS011;24833;49.324;8.694;2023-05-16T05:14:54;11.95;;;9.80;;
38715;SDS011;24833;49.324;8.694;2023-05-16T05:17:21;12.10;;;10.00;;
38715;SDS011;24833;49.324;8.694;2023-05-16T05:19:49;13.88;;;9.57;;
38715;SDS011;24833;49.324;8.694;2023-05-16T05:22:16;13.63;;;9.38;;
38715;SDS011;24833;49.324;8.694;2023-05-16T05:24:43;15.88;;;9.18;;
38715;SDS011;24833;49.324;8.694;2023-05-16T05:27:11;15.15;;;9.95;;
38715;SDS011;24833;49.324;8.694;2023-05-16T05:29:38;12.38;;;9.65;;
38715;SDS011;24833;49.324;8.694;2023-05-16T05:32:05;16.15;;;10.85;;
38715;SDS011;24833;49.324;8.694;2023-05-16T05:34:33;12.35;;;9.75;;
38715;SDS011;24833;49.324;8.694;2023-05-16T05:37:00;12.85;;;9.73;;
38715;SDS011;24833;49.324;8.694;2023-05-16T05:39:27;14.30;;;10.68;;
38715;SDS011;24833;49.324;8.694;2023-05-16T05:41:54;11.52;;;9.57;;
38715;SDS011;24833;49.324;8.694;2023-05-16T05:44:21;12.48;;;9.82;;
38715;SDS011;24833;49.324;8.694;2023-05-16T05:46:48;15.73;;;9.68;;
38715;SDS011;24833;49.324;8.694;2023-05-16T05:49:15;13.23;;;9.88;;
38715;SDS011;24833;49.324;8.694;2023-05-16T05:51:42;12.70;;;9.82;;
38715;SDS011;24833;49.324;8.694;2023-05-16T05:54:09;15.00;;;9.93;;
38715;SDS011;24833;49.324;8.694;2023-05-16T05:56:36;11.25;;;9.48;;
38715;SDS011;24833;49.324;8.694;2023-05-16T05:59:03;12.23;;;9.88;;
38715;SDS011;24833;49.324;8.694;2023-05-16T06:01:30;14.00;;;9.95;;
38715;SDS011;24833;49.324;8.694;2023-05-16T06:03:57;14.75;;;10.00;;
38715;SDS011;24833;49.324;8.694;2023-05-16T06:06:27;12.30;;;9.35;;
38715;SDS011;24833;49.324;8.694;2023-05-16T06:08:55;12.95;;;8.63;;
38715;SDS011;24833;49.324;8.694;2023-05-16T06:11:23;12.57;;;9.35;;
38715;SDS011;24833;49.324;8.694;2023-05-16T06:13:50;12.65;;;9.35;;
38715;SDS011;24833;49.324;8.694;2023-05-16T06:16:17;11.90;;;9.13;;
38715;SDS011;24833;49.324;8.694;2023-05-16T06:18:45;13.68;;;9.55;;
38715;SDS011;24833;49.324;8.694;2023-05-16T06:21:14;15.98;;;8.88;;
38715;SDS011;24833;49.324;8.694;2023-05-16T06:23:41;15.02;;;9.02;;
38715;SDS011;24833;49.324;8.694;2023-05-16T06:26:08;12.07;;;9.18;;
38715;SDS011;24833;49.324;8.694;2023-05-16T06:28:35;11.93;;;9.07;;
38715;SDS011;24833;49.324;8.694;2023-05-16T06:31:01;11.63;;;8.88;;
38715;SDS011;24833;49.324;8.694;2023-05-16T06:33:28;14.15;;;9.30;;
38715;SDS011;24833;49.324;8.694;2023-05-16T06:35:56;10.48;;;8.45;;
38715;SDS011;24833;49.324;8.694;2023-05-16T06:38:23;13.63;;;9.55;;
38715;SDS011;24833;49.324;8.694;2023-05-16T06:40:50;11.98;;;8.73;;
38715;SDS011;24833;49.324;8.694;2023-05-16T06:43:16;12.73;;;9.10;;
38715;SDS011;24833;49.324;8.694;2023-05-16T06:45:43;12.88;;;8.73;;
38715;SDS011;24833;49.324;8.694;2023-05-16T06:48:12;11.30;;;8.23;;
38715;SDS011;24833;49.324;8.694;2023-05-16T06:50:46;16.23;;;8.68;;
38715;SDS011;24833;49.324;8.694;2023-05-16T06:53:15;10.23;;;7.70;;
38715;SDS011;24833;49.324;8.694;2023-05-16T06:55:43;12.32;;;8.18;;
38715;SDS011;24833;49.324;8.694;2023-05-16T06:58:10;9.23;;;6.90;;
38715;SDS011;24833;49.324;8.694;2023-05-16T07:00:37;10.90;;;6.82;;
38715;SDS011;24833;49.324;8.694;2023-05-16T07:03:07;9.02;;;7.43;;
38715;SDS011;24833;49.324;8.694;2023-05-16T07:05:34;13.90;;;7.68;;
38715;SDS011;24833;49.324;8.694;2023-05-16T07:08:01;8.93;;;6.50;;
38715;SDS011;24833;49.324;8.694;2023-05-16T07:10:31;7.20;;;6.18;;
38715;SDS011;24833;49.324;8.694;2023-05-16T07:12:58;7.60;;;6.32;;
38715;SDS011;24833;49.324;8.694;2023-05-16T07:15:26;7.93;;;6.03;;
38715;SDS011;24833;49.324;8.694;2023-05-16T07:17:54;6.50;;;5.40;;
38715;SDS011;24833;49.324;8.694;2023-05-16T07:20:21;6.85;;;5.57;;
38715;SDS011;24833;49.324;8.694;2023-05-16T07:22:48;7.75;;;5.50;;
38715;SDS011;24833;49.324;8.694;2023-05-16T07:25:16;7.75;;;5.88;;
38715;SDS011;24833;49.324;8.694;2023-05-16T07:27:43;5.28;;;4.63;;
38715;SDS011;24833;49.324;8.694;2023-05-16T07:30:11;6.78;;;5.00;;
38715;SDS011;24833;49.324;8.694;2023-05-16T07:32:39;5.72;;;4.85;;
38715;SDS011;24833;49.324;8.694;2023-05-16T07:35:06;6.63;;;5.15;;
38715;SDS011;24833;49.324;8.694;2023-05-16T07:37:34;5.72;;;4.63;;
38715;SDS011;24833;49.324;8.694;2023-05-16T07:40:01;8.35;;;4.95;;
38715;SDS011;24833;49.324;8.694;2023-05-16T07:42:29;5.18;;;4.13;;
38715;SDS011;24833;49.324;8.694;2023-05-16T07:44:57;4.05;;;3.50;;
38715;SDS011;24833;49.324;8.694;2023-05-16T07:47:24;5.20;;;3.70;;
38715;SDS011;24833;49.324;8.694;2023-05-16T07:49:51;4.43;;;3.42;;
38715;SDS011;24833;49.324;8.694;2023-05-16T07:52:18;3.25;;;2.95;;
38715;SDS011;24833;49.324;8.694;2023-05-16T07:54:45;4.13;;;3.15;;
38715;SDS011;24833;49.324;8.694;2023-05-16T07:57:13;3.45;;;2.85;;
38715;SDS011;24833;49.324;8.694;2023-05-16T07:59:41;5.65;;;3.28;;
38715;SDS011;24833;49.324;8.694;2023-05-16T08:02:09;3.22;;;2.92;;
38715;SDS011;24833;49.324;8.694;2023-05-16T08:04:36;5.75;;;3.05;;
38715;SDS011;24833;49.324;8.694;2023-05-16T08:07:04;2.63;;;2.40;;
38715;SDS011;24833;49.324;8.694;2023-05-16T08:09:31;3.20;;;2.70;;
38715;SDS011;24833;49.324;8.694;2023-05-16T08:11:58;3.70;;;2.30;;
38715;SDS011;24833;49.324;8.694;2023-05-16T08:14:29;2.85;;;2.20;;
38715;SDS011;24833;49.324;8.694;2023-05-16T08:16:57;2.83;;;2.25;;
38715;SDS011;24833;49.324;8.694;2023-05-16T08:19:25;5.60;;;1.85;;
38715;SDS011;24833;49.324;8.694;2023-05-16T08:21:53;1.52;;;1.42;;
38715;SDS011;24833;49.324;8.694;2023-05-16T08:24:20;2.90;;;1.27;;
38715;SDS011;24833;49.324;8.694;2023-05-16T08:26:48;1.63;;;1.52;;
38715;SDS011;24833;49.324;8.694;2023-05-16T08:29:15;1.63;;;1.52;;
38715;SDS011;24833;49.324;8.694;2023-05-16T08:31:42;1.90;;;1.48;;
38715;SDS011;24833;49.324;8.694;2023-05-16T08:34:09;1.95;;;1.40;;
38715;SDS011;24833;49.324;8.694;2023-05-16T08:36:37;2.10;;;1.45;;
38715;SDS011;24833;49.324;8.694;2023-05-16T08:39:04;1.60;;;1.50;;
38715;SDS011;24833;49.324;8.694;2023-05-16T08:41:31;1.35;;;1.25;;
38715;SDS011;24833;49.324;8.694;2023-05-16T08:43:58;2.45;;;0.98;;
38715;SDS011;24833;49.324;8.694;2023-05-16T08:46:26;1.48;;;1.38;;
38715;SDS011;24833;49.324;8.694;2023-05-16T08:48:57;1.10;;;1.00;;
38715;SDS011;24833;49.324;8.694;2023-05-16T08:51:27;1.20;;;0.80;;
38715;SDS011;24833;49.324;8.694;2023-05-16T08:54:02;0.88;;;0.88;;
38715;SDS011;24833;49.324;8.694;2023-05-16T08:56:34;0.88;;;0.70;;
38715;SDS011;24833;49.324;8.694;2023-05-16T08:59:03;0.65;;;0.57;;
38715;SDS011;24833;49.324;8.694;2023-05-16T09:01:30;1.13;;;0.63;;
38715;SDS011;24833;49.324;8.694;2023-05-16T09:03:58;0.50;;;0.50;;
38715;SDS011;24833;49.324;8.694;2023-05-16T09:06:27;0.60;;;0.60;;
38715;SDS011;24833;49.324;8.694;2023-05-16T09:08:54;0.73;;;0.73;;
38715;SDS011;24833;49.324;8.694;2023-05-16T09:11:21;1.15;;;0.73;;
38715;SDS011;24833;49.324;8.694;2023-05-16T09:13:49;0.73;;;0.70;;
38715;SDS011;24833;49.324;8.694;2023-05-16T09:16:17;0.60;;;0.60;;
38715;SDS011;24833;49.324;8.694;2023-05-16T09:18:52;0.60;;;0.60;;
38715;SDS011;24833;49.324;8.694;2023-05-16T09:21:31;2.67;;;0.68;;
38715;SDS011;24833;49.324;8.694;2023-05-16T09:24:06;0.70;;;0.70;;
38715;SDS011;24833;49.324;8.694;2023-05-16T09:26:35;1.40;;;0.90;;
38715;SDS011;24833;49.324;8.694;2023-05-16T09:29:10;1.05;;;0.95;;
38715;SDS011;24833;49.324;8.694;2023-05-16T09:31:38;0.80;;;0.80;;
38715;SDS011;24833;49.324;8.694;2023-05-16T09:34:08;0.80;;;0.80;;
38715;SDS011;24833;49.324;8.694;2023-05-16T09:36:38;1.80;;;0.75;;
38715;SDS011;24833;49.324;8.694;2023-05-16T09:39:08;0.70;;;0.70;;
38715;SDS011;24833;49.324;8.694;2023-05-16T09:41:36;0.75;;;0.68;;
38715;SDS011;24833;49.324;8.694;2023-05-16T09:44:05;0.75;;;0.60;;
38715;SDS011;24833;49.324;8.694;2023-05-16T09:46:33;0.73;;;0.73;;
38715;SDS011;24833;49.324;8.694;2023-05-16T09:49:02;0.98;;;0.80;;
38715;SDS011;24833;49.324;8.694;2023-05-16T09:51:29;0.50;;;0.50;;
38715;SDS011;24833;49.324;8.694;2023-05-16T09:53:57;0.47;;;0.47;;
38715;SDS011;24833;49.324;8.694;2023-05-16T09:56:25;2.10;;;0.40;;
38715;SDS011;24833;49.324;8.694;2023-05-16T09:58:52;1.33;;;0.52;;
38715;SDS011;24833;49.324;8.694;2023-05-16T10:01:19;1.13;;;0.73;;
38715;SDS011;24833;49.324;8.694;2023-05-16T10:03:46;0.50;;;0.50;;
38715;SDS011;24833;49.324;8.694;2023-05-16T10:06:13;1.33;;;0.52;;
38715;SDS011;24833;49.324;8.694;2023-05-16T10:08:42;2.53;;;0.50;;
38715;SDS011;24833;49.324;8.694;2023-05-16T10:11:10;0.38;;;0.38;;
38715;SDS011;24833;49.324;8.694;2023-05-16T10:13:38;0.50;;;0.38;;
38715;SDS011;24833;49.324;8.694;2023-05-16T10:16:10;0.30;;;0.30;;
38715;SDS011;24833;49.324;8.694;2023-05-16T10:18:39;0.50;;;0.40;;
38715;SDS011;24833;49.324;8.694;2023-05-16T10:21:09;0.47;;;0.47;;
38715;SDS011;24833;49.324;8.694;2023-05-16T10:23:40;0.88;;;0.40;;
38715;SDS011;24833;49.324;8.694;2023-05-16T10:26:09;0.32;;;0.32;;
38715;SDS011;24833;49.324;8.694;2023-05-16T10:28:39;0.40;;;0.40;;
38715;SDS011;24833;49.324;8.694;2023-05-16T10:31:06;0.38;;;0.32;;
38715;SDS011;24833;49.324;8.694;2023-05-16T10:33:35;0.50;;;0.50;;
38715;SDS011;24833;49.324;8.694;2023-05-16T10:36:02;0.30;;;0.30;;
38715;SDS011;24833;49.324;8.694;2023-05-16T10:38:30;0.73;;;0.55;;
38715;SDS011;24833;49.324;8.694;2023-05-16T10:40:59;1.10;;;0.60;;
38715;SDS011;24833;49.324;8.694;2023-05-16T10:43:28;0.60;;;0.38;;
38715;SDS011;24833;49.324;8.694;2023-05-16T10:45:58;0.30;;;0.30;;
38715;SDS011;24833;49.324;8.694;2023-05-16T10:48:39;0.60;;;0.30;;
38715;SDS011;24833;49.324;8.694;2023-05-16T10:53:52;0.40;;;0.40;;
38715;SDS011;24833;49.324;8.694;2023-05-16T10:56:24;0.77;;;0.40;;
38715;SDS011;24833;49.324;8.694;2023-05-16T10:58:53;0.50;;;0.50;;
38715;SDS011;24833;49.324;8.694;2023-05-16T11:01:23;0.60;;;0.50;;
38715;SDS011;24833;49.324;8.694;2023-05-16T11:06:26;0.52;;;0.52;;
38715;SDS011;24833;49.324;8.694;2023-05-16T11:14:38;0.68;;;0.57;;
38715;SDS011;24833;49.324;8.694;2023-05-16T11:17:19;0.47;;;0.35;;
38715;SDS011;24833;49.324;8.694;2023-05-16T11:19:51;2.88;;;0.70;;
38715;SDS011;24833;49.324;8.694;2023-05-16T11:22:25;0.85;;;0.50;;
38715;SDS011;24833;49.324;8.694;2023-05-16T11:25:03;0.73;;;0.40;;
38715;SDS011;24833;49.324;8.694;2023-05-16T11:27:33;0.40;;;0.40;;
38715;SDS011;24833;49.324;8.694;2023-05-16T11:30:13;0.93;;;0.55;;
38715;SDS011;24833;49.324;8.694;2023-05-16T11:32:45;1.45;;;0.60;;
38715;SDS011;24833;49.324;8.694;2023-05-16T11:35:14;0.88;;;0.50;;
38715;SDS011;24833;49.324;8.694;2023-05-16T11:37:43;0.30;;;0.30;;
38715;SDS011;24833;49.324;8.694;2023-05-16T11:40:12;1.23;;;0.70;;
38715;SDS011;24833;49.324;8.694;2023-05-16T11:42:41;1.25;;;0.60;;
38715;SDS011;24833;49.324;8.694;2023-05-16T11:45:16;1.27;;;0.47;;
38715;SDS011;24833;49.324;8.694;2023-05-16T11:47:49;0.68;;;0.35;;
38715;SDS011;24833;49.324;8.694;2023-05-16T11:50:20;0.75;;;0.30;;
38715;SDS011;24833;49.324;8.694;2023-05-16T11:52:49;0.60;;;0.43;;
38715;SDS011;24833;49.324;8.694;2023-05-16T11:55:20;0.65;;;0.40;;
38715;SDS011;24833;49.324;8.694;2023-05-16T11:58:06;1.92;;;0.47;;
38715;SDS011;24833;49.324;8.694;2023-05-16T12:00:33;0.77;;;0.30;;
38715;SDS011;24833;49.324;8.694;2023-05-16T12:03:01;0.82;;;0.40;;
38715;SDS011;24833;49.324;8.694;2023-05-16T12:05:31;0.38;;;0.32;;
38715;SDS011;24833;49.324;8.694;2023-05-16T12:08:01;0.68;;;0.47;;
38715;SDS011;24833;49.324;8.694;2023-05-16T12:10:30;2.47;;;0.60;;
38715;SDS011;24833;49.324;8.694;2023-05-16T12:13:00;1.47;;;0.60;;
38715;SDS011;24833;49.324;8.694;2023-05-16T12:15:27;2.25;;;0.70;;
38715;SDS011;24833;49.324;8.694;2023-05-16T12:17:55;0.80;;;0.55;;
38715;SDS011;24833;49.324;8.694;2023-05-16T12:20:22;0.65;;;0.40;;
38715;SDS011;24833;49.324;8.694;2023-05-16T12:22:51;2.17;;;0.70;;
38715;SDS011;24833;49.324;8.694;2023-05-16T12:25:25;2.30;;;0.70;;
38715;SDS011;24833;49.324;8.694;2023-05-16T12:27:56;1.10;;;0.57;;
38715;SDS011;24833;49.324;8.694;2023-05-16T12:30:25;1.13;;;0.60;;
38715;SDS011;24833;49.324;8.694;2023-05-16T12:35:31;1.17;;;0.60;;
38715;SDS011;24833;49.324;8.694;2023-05-16T12:38:01;1.65;;;0.63;;
38715;SDS011;24833;49.324;8.694;2023-05-16T12:40:30;1.45;;;0.75;;
38715;SDS011;24833;49.324;8.694;2023-05-16T12:42:58;1.95;;;0.60;;
38715;SDS011;24833;49.324;8.694;2023-05-16T12:45:26;2.28;;;0.68;;
38715;SDS011;24833;49.324;8.694;2023-05-16T12:47:53;3.88;;;0.80;;
38715;SDS011;24833;49.324;8.694;2023-05-16T12:50:20;1.92;;;0.93;;
38715;SDS011;24833;49.324;8.694;2023-05-16T12:52:49;2.42;;;1.02;;
38715;SDS011;24833;49.324;8.694;2023-05-16T12:55:18;2.97;;;1.30;;
38715;SDS011;24833;49.324;8.694;2023-05-16T12:57:47;0.90;;;0.63;;
38715;SDS011;24833;49.324;8.694;2023-05-16T13:00:15;1.42;;;0.73;;
38715;SDS011;24833;49.324;8.694;2023-05-16T13:02:46;2.15;;;1.00;;
38715;SDS011;24833;49.324;8.694;2023-05-16T13:05:14;1.05;;;0.70;;
38715;SDS011;24833;49.324;8.694;2023-05-16T13:07:41;2.25;;;1.05;;
38715;SDS011;24833;49.324;8.694;2023-05-16T13:10:09;1.50;;;0.63;;
38715;SDS011;24833;49.324;8.694;2023-05-16T13:12:38;1.52;;;0.90;;
38715;SDS011;24833;49.324;8.694;2023-05-16T13:15:06;2.28;;;0.82;;
38715;SDS011;24833;49.324;8.694;2023-05-16T13:17:39;2.67;;;0.93;;
38715;SDS011;24833;49.324;8.694;2023-05-16T13:20:09;1.40;;;0.80;;
38715;SDS011;24833;49.324;8.694;2023-05-16T13:22:41;1.55;;;0.88;;
38715;SDS011;24833;49.324;8.694;2023-05-16T13:25:09;3.00;;;1.08;;
38715;SDS011;24833;49.324;8.694;2023-05-16T13:27:37;4.20;;;0.93;;
38715;SDS011;24833;49.324;8.694;2023-05-16T13:30:04;2.53;;;0.80;;
38715;SDS011;24833;49.324;8.694;2023-05-16T13:32:33;2.33;;;0.80;;
38715;SDS011;24833;49.324;8.694;2023-05-16T13:35:01;2.47;;;1.40;;
38715;SDS011;24833;49.324;8.694;2023-05-16T13:37:29;1.50;;;0.90;;
38715;SDS011;24833;49.324;8.694;2023-05-16T13:39:57;1.75;;;0.90;;
38715;SDS011;24833;49.324;8.694;2023-05-16T13:42:24;3.38;;;1.38;;
38715;SDS011;24833;49.324;8.694;2023-05-16T13:44:51;2.08;;;0.70;;
38715;SDS011;24833;49.324;8.694;2023-05-16T13:47:18;1.35;;;0.90;;
38715;SDS011;24833;49.324;8.694;2023-05-16T13:49:46;1.42;;;0.90;;
38715;SDS011;24833;49.324;8.694;2023-05-16T13:52:14;1.92;;;1.23;;
38715;SDS011;24833;49.324;8.694;2023-05-16T13:54:41;7.15;;;1.65;;
38715;SDS011;24833;49.324;8.694;2023-05-16T13:57:08;1.83;;;1.10;;
38715;SDS011;24833;49.324;8.694;2023-05-16T13:59:35;2.55;;;1.15;;
38715;SDS011;24833;49.324;8.694;2023-05-16T14:02:22;4.75;;;1.35;;
38715;SDS011;24833;49.324;8.694;2023-05-16T14:04:51;2.03;;;1.05;;
38715;SDS011;24833;49.324;8.694;2023-05-16T14:07:18;1.27;;;0.77;;
38715;SDS011;24833;49.324;8.694;2023-05-16T14:09:48;1.98;;;1.10;;
38715;SDS011;24833;49.324;8.694;2023-05-16T14:12:15;6.53;;;1.70;;
38715;SDS011;24833;49.324;8.694;2023-05-16T14:14:43;3.60;;;1.30;;
38715;SDS011;24833;49.324;8.694;2023-05-16T14:17:10;4.55;;;1.20;;
38715;SDS011;24833;49.324;8.694;2023-05-16T14:19:37;4.30;;;1.52;;
38715;SDS011;24833;49.324;8.694;2023-05-16T14:22:05;2.42;;;1.05;;
38715;SDS011;24833;49.324;8.694;2023-05-16T14:24:33;2.70;;;1.02;;
38715;SDS011;24833;49.324;8.694;2023-05-16T14:27:03;2.57;;;0.80;;
38715;SDS011;24833;49.324;8.694;2023-05-16T14:29:30;1.95;;;0.90;;
38715;SDS011;24833;49.324;8.694;2023-05-16T14:31:57;1.70;;;1.00;;
38715;SDS011;24833;49.324;8.694;2023-05-16T14:34:24;3.13;;;1.13;;
38715;SDS011;24833;49.324;8.694;2023-05-16T14:36:51;1.50;;;0.98;;
38715;SDS011;24833;49.324;8.694;2023-05-16T14:39:18;2.00;;;0.75;;
38715;SDS011;24833;49.324;8.694;2023-05-16T14:41:45;2.53;;;0.93;;
38715;SDS011;24833;49.324;8.694;2023-05-16T14:44:12;1.92;;;0.70;;
38715;SDS011;24833;49.324;8.694;2023-05-16T14:46:39;1.52;;;1.00;;
38715;SDS011;24833;49.324;8.694;2023-05-16T14:49:06;1.67;;;0.75;;
38715;SDS011;24833;49.324;8.694;2023-05-16T14:51:34;2.03;;;0.80;;
38715;SDS011;24833;49.324;8.694;2023-05-16T14:54:01;1.73;;;0.90;;
38715;SDS011;24833;49.324;8.694;2023-05-16T14:56:28;1.30;;;0.63;;
38715;SDS011;24833;49.324;8.694;2023-05-16T14:58:57;3.88;;;1.10;;
38715;SDS011;24833;49.324;8.694;2023-05-16T15:01:24;0.98;;;0.77;;
38715;SDS011;24833;49.324;8.694;2023-05-16T15:03:52;4.88;;;0.93;;
38715;SDS011;24833;49.324;8.694;2023-05-16T15:06:22;1.65;;;0.68;;
38715;SDS011;24833;49.324;8.694;2023-05-16T15:08:50;2.47;;;0.90;;
38715;SDS011;24833;49.324;8.694;2023-05-16T15:11:18;1.50;;;1.00;;
38715;SDS011;24833;49.324;8.694;2023-05-16T15:13:46;1.35;;;0.75;;
38715;SDS011;24833;49.324;8.694;2023-05-16T15:16:14;3.33;;;0.77;;